13 de agosto de 2022

Hora Código Tiempo Temp. Visibilidad Cielo nuboso Viento METAR/SPECI
6:00 p. m.
V
82 °F 9 mi - 270° 270° 15 - 23 kt METAR CYBW 140000Z AUTO 27015G23KT 9SM CLR 28/05 A2994 RMK SLP131 DENSITY ALT 6300FT
5:00 p. m.
V
82 °F 9 mi - 270° 270° 12 - 19 kt METAR CYBW 132300Z AUTO 27012G19KT 9SM CLR 28/06 A2996 RMK SLP132 DENSITY ALT 6300FT
4:00 p. m.
V
81 °F 9 mi - 320° 320° 6 kt METAR CYBW 132200Z AUTO 32006KT 270V350 9SM CLR 27/06 A2996 RMK SLP132 DENSITY ALT 6200FT
3:14 p. m.
V
77 °F 9 mi 10.000 ft 320° 320° 14 - 32 kt METAR CYBW 132114Z AUTO 32014G32KT 270V340 9SM FEW036 SCT066 SCT079 BKN100 25/06 A2997 RMK LTNG DIST NE E SLP122 DENSITY ALT 5900FT
3:04 p. m.
V
79 °F 9 mi 9.900 ft 270° 270° 18 kt METAR CYBW 132104Z AUTO 27018KT 210V280 9SM -RA FEW066 SCT079 OVC099 26/08 A2998 RMK LTNG DIST NE E SLP122 DENSITY ALT 6000FT
3:00 p. m.
V
75 °F 9 mi 10.000 ft 240° 240° 13 - 21 kt METAR CYBW 132100Z AUTO 24013G21KT 9SM FEW060 OVC100 24/07 A2998 RMK LTNG DIST E SLP145 DENSITY ALT 5800FT
2:35 p. m.
V
79 °F 9 mi 11.000 ft 230° 230° 24 - 30 kt METAR CYBW 132035Z AUTO 23024G30KT 9SM OVC110 26/06 A2997 RMK SLP117 DENSITY ALT 6100FT
2:32 p. m.
V
81 °F 9 mi 11.000 ft 200° 200° 14 - 22 kt METAR CYBW 132032Z AUTO 20014G22KT 9SM BKN110 OVC130 27/07 A2998 RMK SLP117 DENSITY ALT 6100FT
2:00 p. m.
V
82 °F 9 mi - 170° 170° 4 kt METAR CYBW 132000Z AUTO 17004KT 030V190 9SM SCT120 SCT140 28/05 A2997 RMK SLP132 DENSITY ALT 6300FT
1:00 p. m.
V
84 °F 9 mi - Var Var 3 kt METAR CYBW 131900Z AUTO VRB03KT 9SM CLR 29/06 A2997 RMK SLP131 DENSITY ALT 6400FT
12:00 p. m.
V
81 °F 9 mi - Var 000° 0 kt METAR CYBW 131800Z AUTO 00000KT 9SM CLR 27/07 A2999 RMK SLP133 DENSITY ALT 6200FT
11:00 a. m.
V
75 °F 9 mi - Var Var 2 kt METAR CYBW 131700Z AUTO VRB02KT 9SM CLR 24/12 A3000 RMK SLP145 DENSITY ALT 5800FT
10:00 a. m.
V
70 °F 9 mi - Var Var 2 kt METAR CYBW 131600Z AUTO VRB02KT 9SM CLR 21/11 A3001 RMK SLP148 DENSITY ALT 5500FT
9:00 a. m.
V
63 °F 9 mi - 320° 320° 5 kt METAR CYBW 131500Z AUTO 32005KT 9SM CLR 17/10 A3002 RMK SLP154 DENSITY ALT 5000FT
8:00 a. m.
V
57 °F 9 mi - Var Var 2 kt METAR CYBW 131400Z AUTO VRB02KT 9SM CLR 14/08 A3002 RMK SLP155 DENSITY ALT 4600FT
7:00 a. m.
V
50 °F 9 mi - 300° 300° 4 kt METAR CYBW 131300Z AUTO 30004KT 260V320 9SM CLR 10/07 A3001 RMK SLP152 DENSITY ALT 4200FT
6:00 a. m.
V
46 °F 9 mi - Var Var 2 kt METAR CYBW 131200Z AUTO VRB02KT 9SM CLR 08/07 A3001 RMK SLP151 DENSITY ALT 4000FT
5:00 a. m.
V
54 °F 9 mi - 080° 080° 6 kt METAR CYBW 131100Z AUTO 08006KT 320V100 9SM FEW210 12/07 A3001 RMK SLP145 DENSITY ALT 4400FT
4:00 a. m.
V
55 °F 9 mi 21.000 ft 010° 010° 9 kt METAR CYBW 131000Z AUTO 01009KT 9SM BKN210 BKN230 13/09 A2999 RMK SLP139 DENSITY ALT 4600FT
3:22 a. m.
V
55 °F 9 mi 13.000 ft 240° 240° 7 kt METAR CYBW 130922Z AUTO 24007KT 9SM BKN130 BKN160 13/10 A3002 RMK SLP172 DENSITY ALT 4600FT
3:12 a. m.
V
55 °F 9 mi 13.000 ft 230° 230° 7 kt METAR CYBW 130912Z AUTO 23007KT 9SM -RA BKN130 OVC150 13/11 A3002 RMK SLP174 DENSITY ALT 4600FT
3:00 a. m.
V
55 °F 9 mi 14.000 ft 240° 240° 4 kt METAR CYBW 130900Z AUTO 24004KT 230V310 9SM BKN140 BKN160 13/11 A3002 RMK SLP148 DENSITY ALT 4500FT
2:00 a. m.
V
57 °F 9 mi 17.000 ft 310° 310° 8 kt METAR CYBW 130800Z AUTO 31008KT 9SM BKN170 14/11 A3002 RMK SLP148 DENSITY ALT 4700FT
1:00 a. m.
V
59 °F 9 mi - 340° 340° 5 kt METAR CYBW 130700Z AUTO 34005KT 9SM SCT180 15/12 A3002 RMK SLP148 DENSITY ALT 4800FT
12:00 a. m.
V
64 °F 9 mi 22.000 ft 180° 180° 3 kt METAR CYBW 130600Z AUTO 18003KT 120V210 9SM SCT130 SCT190 BKN220 18/11 A3004 RMK SLP153 DENSITY ALT 5100FT

12 de agosto de 2022

Hora Código Tiempo Temp. Visibilidad Cielo nuboso Viento METAR/SPECI
11:00 p. m.
V
61 °F 9 mi - 090° 090° 7 kt METAR CYBW 130500Z AUTO 09007KT 9SM SCT240 16/12 A3004 RMK SLP160 DENSITY ALT 4900FT
10:00 p. m.
V
68 °F 9 mi - 100° 100° 11 kt METAR CYBW 130400Z AUTO 10011KT 9SM FEW091 20/10 A3005 RMK LTNG DIST N NE E PRESFR SLP161 DENSITY ALT 5300FT
9:44 p. m.
V
70 °F 9 mi 9.400 ft Var Var 6 - 15 kt METAR CYBW 130344Z AUTO VRB06G15KT 9SM SCT081 BKN094 BKN120 BKN170 21/11 A3006 RMK LTNG DIST N E SLP164 DENSITY ALT 5500FT
9:38 p. m.
V
70 °F 9 mi 8.600 ft 320° 320° 10 - 15 kt METAR CYBW 130338Z AUTO 32010G15KT 220V330 9SM VCTS BKN086 OVC110 21/11 A3006 RMK LTNG DIST N E SLP163 DENSITY ALT 5400FT
9:11 p. m.
V
72 °F 9 mi 11.000 ft 150° 150° 6 kt METAR CYBW 130311Z AUTO 15006KT 130V190 9SM TS BKN110 BKN210 BKN230 OVC250 22/13 A3004 RMK LTNG DIST N E SE SLP153 DENSITY ALT 5600FT
9:00 p. m.
V
72 °F 9 mi 23.000 ft 160° 160° 7 - 15 kt METAR CYBW 130300Z AUTO 16007G15KT 100V190 9SM VCTS FEW110 SCT210 BKN230 BKN250 22/13 A3003 RMK SLP157 DENSITY ALT 5500FT
8:41 p. m.
V
70 °F 9 mi - 110° 110° 14 - 22 kt METAR CYBW 130241Z AUTO 11014G22KT 9SM VCTS CLR 21/12 A3002 RMK WSHFT AT 0209Z SLP150 DENSITY ALT 5500FT
8:35 p. m.
V
70 °F 9 mi - 100° 100° 17 - 22 kt METAR CYBW 130235Z AUTO 10017G22KT 9SM FEW086 21/11 A3002 RMK WSHFT AT 0209Z SLP151 DENSITY ALT 5500FT
8:24 p. m.
V
72 °F 9 mi - 120° 120° 14 kt METAR CYBW 130224Z AUTO 12014KT 9SM TS SCT091 SCT110 SCT130 22/13 A3002 RMK WSHFT AT 0209Z PRESFR SLP147 DENSITY ALT 5600FT
8:08 p. m.
V
77 °F 9 mi 11.000 ft 210° 210° 15 kt METAR CYBW 130208Z AUTO 21015KT 9SM -TSRA SCT091 BKN110 OVC130 25/13 A3004 RMK SLP145 DENSITY ALT 5900FT
7:57 p. m.
V
79 °F 9 mi 12.000 ft 220° 220° 11 kt METAR CYBW 130157Z AUTO 22011KT 140V240 9SM TS FEW100 BKN120 BKN160 OVC230 26/10 A3003 RMK SLP140 DENSITY ALT 6000FT
7:00 p. m.
V
84 °F 9 mi - 160° 160° 10 - 15 kt METAR CYBW 130100Z AUTO 16010G15KT 9SM CLR 29/09 A3002 RMK SLP153 DENSITY ALT 6400FT
6:00 p. m.
V
86 °F 9 mi - 160° 160° 11 kt METAR CYBW 130000Z AUTO 16011KT 120V180 9SM CLR 30/08 A3003 RMK SLP151 DENSITY ALT 6500FT
5:00 p. m.
V
86 °F 9 mi - 120° 120° 11 kt METAR CYBW 122300Z AUTO 12011KT 110V180 9SM CLR 30/08 A3003 RMK SLP153 DENSITY ALT 6500FT
4:00 p. m.
V
86 °F 9 mi - 150° 150° 5 kt METAR CYBW 122200Z AUTO 15005KT 100V180 9SM CLR 30/08 A3006 RMK SLP164 DENSITY ALT 6400FT
3:00 p. m.
V
86 °F 9 mi - 130° 130° 7 kt METAR CYBW 122100Z AUTO 13007KT 090V150 9SM CLR 30/08 A3008 RMK SLP171 DENSITY ALT 6300FT
2:00 p. m.
V
82 °F 9 mi - 150° 150° 6 kt METAR CYBW 122000Z AUTO 15006KT 100V190 9SM CLR 28/10 A3010 RMK SLP178 DENSITY ALT 6200FT
1:00 p. m.
V
81 °F 9 mi - 140° 140° 10 - 15 kt METAR CYBW 121900Z AUTO 14010G15KT 9SM CLR 27/11 A3012 RMK SLP186 DENSITY ALT 6100FT
12:00 p. m.
V
79 °F 9 mi - 140° 140° 8 kt METAR CYBW 121800Z AUTO 14008KT 9SM CLR 26/09 A3013 RMK SLP193 DENSITY ALT 5900FT
11:00 a. m.
V
75 °F 9 mi - 140° 140° 7 kt METAR CYBW 121700Z AUTO 14007KT 9SM CLR 24/10 A3014 RMK SLP193 DENSITY ALT 5700FT
10:00 a. m.
V
68 °F 9 mi - Var Var 2 kt METAR CYBW 121600Z AUTO VRB02KT 9SM CLR 20/12 A3015 RMK SLP203 DENSITY ALT 5300FT
9:00 a. m.
V
63 °F 9 mi - 340° 340° 4 kt METAR CYBW 121500Z AUTO 34004KT 9SM CLR 17/12 A3016 RMK SLP210 DENSITY ALT 4800FT
8:00 a. m.
V
55 °F 9 mi - 330° 330° 5 kt METAR CYBW 121400Z AUTO 33005KT 9SM SCT130 13/12 A3016 RMK SLP209 DENSITY ALT 4400FT
7:00 a. m.
V
52 °F 9 mi - 350° 350° 5 kt METAR CYBW 121300Z AUTO 35005KT 9SM CLR 11/10 A3016 RMK SLP205 DENSITY ALT 4200FT
6:00 a. m.
V
55 °F 9 mi 19.000 ft 310° 310° 5 kt METAR CYBW 121200Z AUTO 31005KT 9SM FEW120 BKN190 OVC220 13/11 A3015 RMK SLP197 DENSITY ALT 4400FT
5:35 a. m.
V
55 °F 9 mi 19.000 ft 310° 310° 8 kt METAR CYBW 121135Z AUTO 31008KT 9SM FEW091 SCT120 OVC190 13/11 A3015 RMK SLP220 DENSITY ALT 4400FT
5:19 a. m.
V
55 °F 9 mi 12.000 ft 340° 340° 6 kt METAR CYBW 121119Z AUTO 34006KT 9SM -RA OVC120 13/12 A3014 RMK SLP218 DENSITY ALT 4400FT
5:00 a. m.
V
55 °F 9 mi 11.000 ft 300° 300° 3 kt METAR CYBW 121100Z AUTO 30003KT 300V040 9SM BKN110 BKN130 BKN210 OVC240 13/12 A3015 RMK SLP199 DENSITY ALT 4400FT
4:00 a. m.
V
54 °F 9 mi 11.000 ft 300° 300° 4 kt METAR CYBW 121000Z AUTO 30004KT 290V350 9SM BKN110 OVC240 12/11 A3018 RMK SLP210 DENSITY ALT 4300FT
3:00 a. m.
V
55 °F 9 mi 14.000 ft Var 000° 0 kt METAR CYBW 120900Z AUTO 00000KT 9SM BKN140 BKN160 13/11 A3016 RMK SLP200 DENSITY ALT 4300FT
2:24 a. m.
V
55 °F 9 mi 15.000 ft 330° 330° 4 kt METAR CYBW 120824Z AUTO 33004KT 9SM FEW076 SCT120 BKN150 13/12 A3016 RMK SLP222 DENSITY ALT 4400FT
2:00 a. m.
V
55 °F 9 mi 11.000 ft 040° 040° 4 kt METAR CYBW 120800Z AUTO 04004KT 290V050 9SM -RA FEW076 BKN110 BKN150 OVC170 13/12 A3016 RMK SLP198 DENSITY ALT 4400FT
1:58 a. m.
V
55 °F 9 mi 11.000 ft 030° 030° 5 kt METAR CYBW 120758Z AUTO 03005KT 280V040 9SM -RA FEW076 BKN110 BKN140 OVC170 13/11 A3016 RMK SLP221 DENSITY ALT 4400FT
1:00 a. m.
V
55 °F 9 mi - 310° 310° 3 kt METAR CYBW 120700Z AUTO 31003KT 280V340 9SM CLR 13/11 A3017 RMK SLP198 DENSITY ALT 4400FT
12:00 a. m.
V
57 °F 9 mi 12.000 ft 310° 310° 2 kt METAR CYBW 120600Z AUTO 31002KT 9SM BKN120 BKN150 14/11 A3017 RMK SLP199 DENSITY ALT 4500FT

11 de agosto de 2022

Hora Código Tiempo Temp. Visibilidad Cielo nuboso Viento METAR/SPECI
11:00 p. m.
V
63 °F 9 mi - 340° 340° 5 kt METAR CYBW 120500Z AUTO 34005KT 9SM SCT120 17/10 A3017 RMK SLP196 DENSITY ALT 4800FT
10:00 p. m.
V
61 °F 9 mi 14.000 ft 320° 320° 6 kt METAR CYBW 120400Z AUTO 32006KT 9SM FEW120 BKN140 BKN160 16/11 A3016 RMK SLP202 DENSITY ALT 4800FT
9:00 p. m.
V
64 °F 9 mi 11.000 ft Var Var 2 kt METAR CYBW 120300Z AUTO VRB02KT 9SM BKN110 BKN140 18/10 A3015 RMK SLP203 DENSITY ALT 5000FT
8:00 p. m.
V
72 °F 9 mi - 030° 030° 6 kt METAR CYBW 120200Z AUTO 03006KT 330V060 9SM CLR 22/10 A3014 RMK SLP194 DENSITY ALT 5500FT
7:00 p. m.
V
79 °F 9 mi - 020° 020° 10 kt METAR CYBW 120100Z AUTO 02010KT 9SM CLR 26/09 A3012 RMK SLP188 DENSITY ALT 5900FT
6:00 p. m.
V
81 °F 9 mi - 040° 040° 15 kt METAR CYBW 120000Z AUTO 04015KT 9SM FEW240 27/08 A3010 RMK SLP182 DENSITY ALT 6000FT
5:00 p. m.
V
82 °F 9 mi - 020° 020° 14 - 19 kt METAR CYBW 112300Z AUTO 02014G19KT 9SM CLR 28/09 A3010 RMK SLP178 DENSITY ALT 6100FT
4:00 p. m.
V
79 °F 9 mi - 010° 010° 18 - 23 kt METAR CYBW 112200Z AUTO 01018G23KT 9SM CLR 26/07 A3010 RMK SLP180 DENSITY ALT 5900FT
3:00 p. m.
V
82 °F 9 mi - 010° 010° 20 - 25 kt METAR CYBW 112100Z AUTO 01020G25KT 9SM CLR 28/10 A3009 RMK SLP174 DENSITY ALT 6200FT
2:29 p. m.
V
84 °F 9 mi - 020° 020° 23 - 34 kt METAR CYBW 112029Z AUTO 02023G34KT 9SM FEW096 29/12 A3008 RMK LTNG DIST NW SLP148 DENSITY ALT 6300FT
2:00 p. m.
V
82 °F 9 mi 9.100 ft 020° 020° 11 kt METAR CYBW 112000Z AUTO 02011KT 9SM BKN091 BKN120 28/11 A3008 RMK LTNG DIST NW SLP169 DENSITY ALT 6200FT
1:00 p. m.
V
88 °F 9 mi 8.600 ft 320° 320° 8 kt METAR CYBW 111900Z AUTO 32008KT 240V340 9SM BKN086 BKN170 31/10 A3007 RMK SLP162 DENSITY ALT 6500FT
12:34 p. m.
V
86 °F 8 mi 18.000 ft 280° 280° 8 - 15 kt METAR CYBW 111834Z AUTO 28008G15KT 200V340 8SM BKN180 30/10 A3007 RMK SLP141 DENSITY ALT 6400FT
12:00 p. m.
V
84 °F 9 mi - 300° 300° 5 kt METAR CYBW 111800Z AUTO 30005KT 250V330 9SM CLR 29/10 A3007 RMK SLP160 DENSITY ALT 6300FT
11:00 a. m.
V
84 °F 9 mi - 300° 300° 12 - 17 kt METAR CYBW 111700Z AUTO 30012G17KT 9SM CLR 29/10 A3007 RMK SLP157 DENSITY ALT 6200FT
10:00 a. m.
V
73 °F 9 mi - 340° 340° 6 kt METAR CYBW 111600Z AUTO 34006KT 9SM CLR 23/14 A3007 RMK SLP166 DENSITY ALT 5700FT
9:00 a. m.
V
64 °F 9 mi - 330° 330° 5 kt METAR CYBW 111500Z AUTO 33005KT 9SM CLR 18/12 A3008 RMK SLP172 DENSITY ALT 5100FT
Datos más antiguos

Nosotros y terceros seguimos tu comportamiento en Internet en nuestro sitio web con cookies. Si continúas, asumimos que estás de acuerdo con nuestra política de cookies. Más información